sensor_id;sensor_type;location;lat;lon;timestamp;temperature;humidity
12604;DHT22;6367;52.508;13.284;2022-08-21T00:02:25;23.50;99.90
12604;DHT22;6367;52.508;13.284;2022-08-21T00:04:51;23.60;99.90
12604;DHT22;6367;52.508;13.284;2022-08-21T00:07:19;23.60;99.90
12604;DHT22;6367;52.508;13.284;2022-08-21T00:09:45;23.50;99.90
12604;DHT22;6367;52.508;13.284;2022-08-21T00:12:11;23.50;99.90
12604;DHT22;6367;52.508;13.284;2022-08-21T00:14:36;23.40;99.90
12604;DHT22;6367;52.508;13.284;2022-08-21T00:17:03;23.40;99.90
12604;DHT22;6367;52.508;13.284;2022-08-21T00:19:29;23.40;99.90
12604;DHT22;6367;52.508;13.284;2022-08-21T00:21:55;23.40;99.90
12604;DHT22;6367;52.508;13.284;2022-08-21T00:24:22;23.50;99.90
12604;DHT22;6367;52.508;13.284;2022-08-21T00:26:48;23.90;99.90
12604;DHT22;6367;52.508;13.284;2022-08-21T00:29:14;23.80;99.90
12604;DHT22;6367;52.508;13.284;2022-08-21T00:31:41;23.30;99.90
12604;DHT22;6367;52.508;13.284;2022-08-21T00:34:07;23.30;99.90
12604;DHT22;6367;52.508;13.284;2022-08-21T00:36:34;23.50;99.90
12604;DHT22;6367;52.508;13.284;2022-08-21T00:39:00;23.20;99.90
12604;DHT22;6367;52.508;13.284;2022-08-21T00:41:27;23.10;99.90
12604;DHT22;6367;52.508;13.284;2022-08-21T00:43:53;23.20;99.90
12604;DHT22;6367;52.508;13.284;2022-08-21T00:46:18;23.20;99.90
12604;DHT22;6367;52.508;13.284;2022-08-21T00:48:44;23.20;99.90
12604;DHT22;6367;52.508;13.284;2022-08-21T00:51:15;23.40;99.90
12604;DHT22;6367;52.508;13.284;2022-08-21T00:53:51;23.40;99.90
12604;DHT22;6367;52.508;13.284;2022-08-21T00:56:19;23.30;99.90
12604;DHT22;6367;52.508;13.284;2022-08-21T00:58:46;23.30;99.90
12604;DHT22;6367;52.508;13.284;2022-08-21T01:01:13;23.30;99.90
12604;DHT22;6367;52.508;13.284;2022-08-21T01:03:39;23.30;99.90
12604;DHT22;6367;52.508;13.284;2022-08-21T01:06:05;23.30;99.90
12604;DHT22;6367;52.508;13.284;2022-08-21T01:08:32;23.30;99.90
12604;DHT22;6367;52.508;13.284;2022-08-21T01:10:59;23.30;99.90
12604;DHT22;6367;52.508;13.284;2022-08-21T01:13:27;23.10;99.90
12604;DHT22;6367;52.508;13.284;2022-08-21T01:15:56;23.10;99.90
12604;DHT22;6367;52.508;13.284;2022-08-21T01:18:25;23.00;99.90
12604;DHT22;6367;52.508;13.284;2022-08-21T01:23:29;23.00;99.90
12604;DHT22;6367;52.508;13.284;2022-08-21T01:25:54;23.10;99.90
12604;DHT22;6367;52.508;13.284;2022-08-21T01:28:22;23.00;99.90
12604;DHT22;6367;52.508;13.284;2022-08-21T01:30:48;23.10;99.90
12604;DHT22;6367;52.508;13.284;2022-08-21T01:33:17;22.90;99.90
12604;DHT22;6367;52.508;13.284;2022-08-21T01:35:43;22.90;99.90
12604;DHT22;6367;52.508;13.284;2022-08-21T01:38:08;22.80;99.90
12604;DHT22;6367;52.508;13.284;2022-08-21T01:40:34;23.30;99.90
12604;DHT22;6367;52.508;13.284;2022-08-21T01:43:00;22.90;99.90
12604;DHT22;6367;52.508;13.284;2022-08-21T01:45:26;22.90;99.90
12604;DHT22;6367;52.508;13.284;2022-08-21T01:47:51;22.70;99.90
12604;DHT22;6367;52.508;13.284;2022-08-21T01:50:19;22.60;99.90
12604;DHT22;6367;52.508;13.284;2022-08-21T01:52:45;22.70;99.90
12604;DHT22;6367;52.508;13.284;2022-08-21T01:55:13;22.80;99.90
12604;DHT22;6367;52.508;13.284;2022-08-21T01:57:39;22.60;99.90
12604;DHT22;6367;52.508;13.284;2022-08-21T02:00:09;22.50;99.90
12604;DHT22;6367;52.508;13.284;2022-08-21T02:02:36;22.40;99.90
12604;DHT22;6367;52.508;13.284;2022-08-21T02:05:03;22.40;99.90
12604;DHT22;6367;52.508;13.284;2022-08-21T02:07:36;22.40;99.90
12604;DHT22;6367;52.508;13.284;2022-08-21T02:10:04;22.50;99.90
12604;DHT22;6367;52.508;13.284;2022-08-21T02:12:30;22.60;99.90
12604;DHT22;6367;52.508;13.284;2022-08-21T02:14:56;22.50;99.90
12604;DHT22;6367;52.508;13.284;2022-08-21T02:17:21;22.50;99.90
12604;DHT22;6367;52.508;13.284;2022-08-21T02:19:47;22.50;99.90
12604;DHT22;6367;52.508;13.284;2022-08-21T02:22:13;22.60;99.90
12604;DHT22;6367;52.508;13.284;2022-08-21T02:24:39;22.60;99.90
12604;DHT22;6367;52.508;13.284;2022-08-21T02:27:05;22.90;99.90
12604;DHT22;6367;52.508;13.284;2022-08-21T02:29:30;22.40;99.90
12604;DHT22;6367;52.508;13.284;2022-08-21T02:31:56;22.40;99.90
12604;DHT22;6367;52.508;13.284;2022-08-21T02:34:21;22.30;99.90
12604;DHT22;6367;52.508;13.284;2022-08-21T02:36:48;22.30;99.90
12604;DHT22;6367;52.508;13.284;2022-08-21T02:39:13;22.40;99.90
12604;DHT22;6367;52.508;13.284;2022-08-21T02:41:39;22.40;99.90
12604;DHT22;6367;52.508;13.284;2022-08-21T02:44:04;22.30;99.90
12604;DHT22;6367;52.508;13.284;2022-08-21T02:46:30;22.30;99.90
12604;DHT22;6367;52.508;13.284;2022-08-21T02:48:56;22.20;99.90
12604;DHT22;6367;52.508;13.284;2022-08-21T02:51:22;22.10;99.90
12604;DHT22;6367;52.508;13.284;2022-08-21T02:53:52;22.00;99.90
12604;DHT22;6367;52.508;13.284;2022-08-21T02:56:20;22.10;99.90
12604;DHT22;6367;52.508;13.284;2022-08-21T02:58:50;22.10;99.90
12604;DHT22;6367;52.508;13.284;2022-08-21T03:01:17;22.10;99.90
12604;DHT22;6367;52.508;13.284;2022-08-21T03:03:44;22.30;99.90
12604;DHT22;6367;52.508;13.284;2022-08-21T03:06:13;22.30;99.90
12604;DHT22;6367;52.508;13.284;2022-08-21T03:08:39;22.30;99.90
12604;DHT22;6367;52.508;13.284;2022-08-21T03:11:05;22.20;99.90
12604;DHT22;6367;52.508;13.284;2022-08-21T03:13:31;22.20;99.90
12604;DHT22;6367;52.508;13.284;2022-08-21T03:15:57;22.20;99.90
12604;DHT22;6367;52.508;13.284;2022-08-21T03:18:23;22.30;99.90
12604;DHT22;6367;52.508;13.284;2022-08-21T03:20:49;22.50;99.90
12604;DHT22;6367;52.508;13.284;2022-08-21T03:23:16;22.00;99.90
12604;DHT22;6367;52.508;13.284;2022-08-21T03:25:42;22.00;99.90
12604;DHT22;6367;52.508;13.284;2022-08-21T03:28:12;21.90;99.90
12604;DHT22;6367;52.508;13.284;2022-08-21T03:30:38;21.70;99.90
12604;DHT22;6367;52.508;13.284;2022-08-21T03:33:03;21.80;99.90
12604;DHT22;6367;52.508;13.284;2022-08-21T03:35:29;21.90;99.90
12604;DHT22;6367;52.508;13.284;2022-08-21T03:37:55;21.90;99.90
12604;DHT22;6367;52.508;13.284;2022-08-21T03:40:24;21.90;99.90
12604;DHT22;6367;52.508;13.284;2022-08-21T03:42:50;21.90;99.90
12604;DHT22;6367;52.508;13.284;2022-08-21T03:45:17;21.90;99.90
12604;DHT22;6367;52.508;13.284;2022-08-21T03:47:59;21.70;99.90
12604;DHT22;6367;52.508;13.284;2022-08-21T03:50:29;21.60;99.90
12604;DHT22;6367;52.508;13.284;2022-08-21T03:52:55;21.70;99.90
12604;DHT22;6367;52.508;13.284;2022-08-21T03:55:21;21.70;99.90
12604;DHT22;6367;52.508;13.284;2022-08-21T03:57:46;21.70;99.90
12604;DHT22;6367;52.508;13.284;2022-08-21T04:00:14;21.70;99.90
12604;DHT22;6367;52.508;13.284;2022-08-21T04:02:40;21.70;99.90
12604;DHT22;6367;52.508;13.284;2022-08-21T04:05:07;21.70;99.90
12604;DHT22;6367;52.508;13.284;2022-08-21T04:07:32;21.60;99.90
12604;DHT22;6367;52.508;13.284;2022-08-21T04:09:58;21.50;99.90
12604;DHT22;6367;52.508;13.284;2022-08-21T04:12:24;21.60;99.90
12604;DHT22;6367;52.508;13.284;2022-08-21T04:14:50;22.20;99.90
12604;DHT22;6367;52.508;13.284;2022-08-21T04:17:17;21.70;99.90
12604;DHT22;6367;52.508;13.284;2022-08-21T04:19:43;21.60;99.90
12604;DHT22;6367;52.508;13.284;2022-08-21T04:22:08;21.60;99.90
12604;DHT22;6367;52.508;13.284;2022-08-21T04:24:34;21.50;99.90
12604;DHT22;6367;52.508;13.284;2022-08-21T04:27:00;21.50;99.90
12604;DHT22;6367;52.508;13.284;2022-08-21T04:29:26;21.70;99.90
12604;DHT22;6367;52.508;13.284;2022-08-21T04:31:51;21.40;99.90
12604;DHT22;6367;52.508;13.284;2022-08-21T04:34:18;21.60;99.90
12604;DHT22;6367;52.508;13.284;2022-08-21T04:36:43;21.40;99.90
12604;DHT22;6367;52.508;13.284;2022-08-21T04:39:09;21.20;99.90
12604;DHT22;6367;52.508;13.284;2022-08-21T04:41:35;21.30;99.90
12604;DHT22;6367;52.508;13.284;2022-08-21T04:44:02;21.30;99.90
12604;DHT22;6367;52.508;13.284;2022-08-21T04:46:28;21.30;99.90
12604;DHT22;6367;52.508;13.284;2022-08-21T04:48:54;21.40;99.90
12604;DHT22;6367;52.508;13.284;2022-08-21T04:51:28;21.40;99.90
12604;DHT22;6367;52.508;13.284;2022-08-21T04:53:59;21.40;99.90
12604;DHT22;6367;52.508;13.284;2022-08-21T04:56:31;21.50;99.90
12604;DHT22;6367;52.508;13.284;2022-08-21T04:58:59;21.40;99.90
12604;DHT22;6367;52.508;13.284;2022-08-21T05:01:27;21.50;99.90
12604;DHT22;6367;52.508;13.284;2022-08-21T05:03:56;21.50;99.90
12604;DHT22;6367;52.508;13.284;2022-08-21T05:06:23;21.60;99.90
12604;DHT22;6367;52.508;13.284;2022-08-21T05:08:51;21.60;99.90
12604;DHT22;6367;52.508;13.284;2022-08-21T05:11:17;21.60;99.90
12604;DHT22;6367;52.508;13.284;2022-08-21T05:13:43;21.60;99.90
12604;DHT22;6367;52.508;13.284;2022-08-21T05:16:09;21.50;99.90
12604;DHT22;6367;52.508;13.284;2022-08-21T05:18:34;21.50;99.90
12604;DHT22;6367;52.508;13.284;2022-08-21T05:21:00;21.50;99.90
12604;DHT22;6367;52.508;13.284;2022-08-21T05:23:26;21.40;99.90
12604;DHT22;6367;52.508;13.284;2022-08-21T05:25:52;21.50;99.90
12604;DHT22;6367;52.508;13.284;2022-08-21T05:28:19;21.60;99.90
12604;DHT22;6367;52.508;13.284;2022-08-21T05:30:45;21.60;99.90
12604;DHT22;6367;52.508;13.284;2022-08-21T05:33:10;21.50;99.90
12604;DHT22;6367;52.508;13.284;2022-08-21T05:35:37;21.50;99.90
12604;DHT22;6367;52.508;13.284;2022-08-21T05:38:04;21.70;99.90
12604;DHT22;6367;52.508;13.284;2022-08-21T05:40:30;21.70;99.90
12604;DHT22;6367;52.508;13.284;2022-08-21T05:42:57;21.70;99.90
12604;DHT22;6367;52.508;13.284;2022-08-21T05:45:27;21.60;99.90
12604;DHT22;6367;52.508;13.284;2022-08-21T05:47:53;21.70;99.90
12604;DHT22;6367;52.508;13.284;2022-08-21T05:50:18;22.30;99.90
12604;DHT22;6367;52.508;13.284;2022-08-21T05:52:44;21.70;99.90
12604;DHT22;6367;52.508;13.284;2022-08-21T05:55:10;21.80;99.90
12604;DHT22;6367;52.508;13.284;2022-08-21T05:57:35;21.80;99.90
12604;DHT22;6367;52.508;13.284;2022-08-21T06:00:02;21.80;99.90
12604;DHT22;6367;52.508;13.284;2022-08-21T06:02:28;21.80;99.90
12604;DHT22;6367;52.508;13.284;2022-08-21T06:04:56;21.80;99.90
12604;DHT22;6367;52.508;13.284;2022-08-21T06:07:22;21.90;99.90
12604;DHT22;6367;52.508;13.284;2022-08-21T06:09:47;21.90;99.90
12604;DHT22;6367;52.508;13.284;2022-08-21T06:12:13;22.00;99.90
12604;DHT22;6367;52.508;13.284;2022-08-21T06:14:40;21.90;99.90
12604;DHT22;6367;52.508;13.284;2022-08-21T06:17:08;22.00;99.90
12604;DHT22;6367;52.508;13.284;2022-08-21T06:19:34;22.00;99.90
12604;DHT22;6367;52.508;13.284;2022-08-21T06:22:01;22.00;99.90
12604;DHT22;6367;52.508;13.284;2022-08-21T06:24:27;22.10;99.90
12604;DHT22;6367;52.508;13.284;2022-08-21T06:26:54;22.20;99.90
12604;DHT22;6367;52.508;13.284;2022-08-21T06:29:20;22.10;99.90
12604;DHT22;6367;52.508;13.284;2022-08-21T06:31:47;22.10;99.90
12604;DHT22;6367;52.508;13.284;2022-08-21T06:34:13;22.00;99.90
12604;DHT22;6367;52.508;13.284;2022-08-21T06:36:39;22.30;99.90
12604;DHT22;6367;52.508;13.284;2022-08-21T06:39:04;22.00;99.90
12604;DHT22;6367;52.508;13.284;2022-08-21T06:41:31;22.00;99.90
12604;DHT22;6367;52.508;13.284;2022-08-21T06:43:56;22.00;99.90
12604;DHT22;6367;52.508;13.284;2022-08-21T06:46:23;22.10;99.90
12604;DHT22;6367;52.508;13.284;2022-08-21T06:48:49;22.50;99.90
12604;DHT22;6367;52.508;13.284;2022-08-21T06:51:15;22.10;99.90
12604;DHT22;6367;52.508;13.284;2022-08-21T06:53:41;22.20;99.90
12604;DHT22;6367;52.508;13.284;2022-08-21T06:56:07;22.30;99.90
12604;DHT22;6367;52.508;13.284;2022-08-21T06:58:33;22.40;99.90
12604;DHT22;6367;52.508;13.284;2022-08-21T07:00:59;22.40;99.90
12604;DHT22;6367;52.508;13.284;2022-08-21T07:03:31;22.40;99.90
12604;DHT22;6367;52.508;13.284;2022-08-21T07:05:57;22.60;99.90
12604;DHT22;6367;52.508;13.284;2022-08-21T07:08:24;22.70;99.90
12604;DHT22;6367;52.508;13.284;2022-08-21T07:10:51;22.70;99.90
12604;DHT22;6367;52.508;13.284;2022-08-21T07:13:17;22.70;99.90
12604;DHT22;6367;52.508;13.284;2022-08-21T07:15:43;22.70;99.90
12604;DHT22;6367;52.508;13.284;2022-08-21T07:18:10;22.80;99.90
12604;DHT22;6367;52.508;13.284;2022-08-21T07:20:37;23.00;99.90
12604;DHT22;6367;52.508;13.284;2022-08-21T07:23:08;23.50;99.90
12604;DHT22;6367;52.508;13.284;2022-08-21T07:25:34;23.00;99.90
12604;DHT22;6367;52.508;13.284;2022-08-21T07:28:00;23.10;99.90
12604;DHT22;6367;52.508;13.284;2022-08-21T07:30:26;23.20;99.90
12604;DHT22;6367;52.508;13.284;2022-08-21T07:32:52;23.30;99.90
12604;DHT22;6367;52.508;13.284;2022-08-21T07:35:21;23.20;99.90
12604;DHT22;6367;52.508;13.284;2022-08-21T07:37:47;23.20;99.90
12604;DHT22;6367;52.508;13.284;2022-08-21T07:40:14;23.50;99.90
12604;DHT22;6367;52.508;13.284;2022-08-21T07:42:42;23.40;99.90
12604;DHT22;6367;52.508;13.284;2022-08-21T07:45:09;23.50;99.90
12604;DHT22;6367;52.508;13.284;2022-08-21T07:47:34;23.50;99.90
12604;DHT22;6367;52.508;13.284;2022-08-21T07:50:00;23.60;99.90
12604;DHT22;6367;52.508;13.284;2022-08-21T07:52:26;23.60;99.90
12604;DHT22;6367;52.508;13.284;2022-08-21T07:54:52;23.60;99.90
12604;DHT22;6367;52.508;13.284;2022-08-21T07:57:18;23.70;99.90
12604;DHT22;6367;52.508;13.284;2022-08-21T07:59:43;24.30;99.90
12604;DHT22;6367;52.508;13.284;2022-08-21T08:02:09;23.80;99.90
12604;DHT22;6367;52.508;13.284;2022-08-21T08:04:35;23.80;99.90
12604;DHT22;6367;52.508;13.284;2022-08-21T08:07:00;23.90;99.90
12604;DHT22;6367;52.508;13.284;2022-08-21T08:09:26;23.90;99.90
12604;DHT22;6367;52.508;13.284;2022-08-21T08:11:52;24.00;99.70
12604;DHT22;6367;52.508;13.284;2022-08-21T08:14:17;23.90;99.80
12604;DHT22;6367;52.508;13.284;2022-08-21T08:16:43;23.90;99.90
12604;DHT22;6367;52.508;13.284;2022-08-21T08:19:08;24.00;99.90
12604;DHT22;6367;52.508;13.284;2022-08-21T08:21:34;24.10;99.90
12604;DHT22;6367;52.508;13.284;2022-08-21T08:24:00;24.20;99.90
12604;DHT22;6367;52.508;13.284;2022-08-21T08:26:26;24.60;99.90
12604;DHT22;6367;52.508;13.284;2022-08-21T08:28:52;24.40;99.00
12604;DHT22;6367;52.508;13.284;2022-08-21T08:31:18;24.50;98.90
12604;DHT22;6367;52.508;13.284;2022-08-21T08:33:43;24.50;98.60
12604;DHT22;6367;52.508;13.284;2022-08-21T08:36:15;24.60;98.40
12604;DHT22;6367;52.508;13.284;2022-08-21T08:38:40;24.60;98.20
12604;DHT22;6367;52.508;13.284;2022-08-21T08:41:15;24.60;98.00
12604;DHT22;6367;52.508;13.284;2022-08-21T08:43:48;24.60;98.20
12604;DHT22;6367;52.508;13.284;2022-08-21T08:46:16;24.60;98.00
12604;DHT22;6367;52.508;13.284;2022-08-21T08:48:50;24.70;97.70
12604;DHT22;6367;52.508;13.284;2022-08-21T08:51:51;24.70;97.80
12604;DHT22;6367;52.508;13.284;2022-08-21T08:54:37;24.80;97.60
12604;DHT22;6367;52.508;13.284;2022-08-21T08:57:09;24.70;97.40
12604;DHT22;6367;52.508;13.284;2022-08-21T08:59:41;24.80;97.40
12604;DHT22;6367;52.508;13.284;2022-08-21T09:02:09;24.80;96.50
12604;DHT22;6367;52.508;13.284;2022-08-21T09:04:36;24.90;96.30
12604;DHT22;6367;52.508;13.284;2022-08-21T09:07:31;25.00;95.90
12604;DHT22;6367;52.508;13.284;2022-08-21T09:12:51;25.00;95.70
12604;DHT22;6367;52.508;13.284;2022-08-21T09:26:20;25.00;95.10
12604;DHT22;6367;52.508;13.284;2022-08-21T09:28:51;25.00;95.10
12604;DHT22;6367;52.508;13.284;2022-08-21T09:33:48;25.20;95.00
12604;DHT22;6367;52.508;13.284;2022-08-21T09:36:25;25.10;94.50
12604;DHT22;6367;52.508;13.284;2022-08-21T09:38:54;25.10;94.40
12604;DHT22;6367;52.508;13.284;2022-08-21T09:41:28;25.20;93.90
12604;DHT22;6367;52.508;13.284;2022-08-21T09:43:54;25.20;93.80
12604;DHT22;6367;52.508;13.284;2022-08-21T09:46:22;25.40;93.60
12604;DHT22;6367;52.508;13.284;2022-08-21T09:48:52;25.30;94.10
12604;DHT22;6367;52.508;13.284;2022-08-21T09:51:28;25.30;93.80
12604;DHT22;6367;52.508;13.284;2022-08-21T09:54:19;25.30;93.70
12604;DHT22;6367;52.508;13.284;2022-08-21T09:56:59;25.50;93.20
12604;DHT22;6367;52.508;13.284;2022-08-21T09:59:45;25.50;93.20
12604;DHT22;6367;52.508;13.284;2022-08-21T10:02:28;25.60;92.90
12604;DHT22;6367;52.508;13.284;2022-08-21T10:05:03;25.70;92.60
12604;DHT22;6367;52.508;13.284;2022-08-21T10:07:31;25.70;92.60
12604;DHT22;6367;52.508;13.284;2022-08-21T10:10:04;25.80;92.10
12604;DHT22;6367;52.508;13.284;2022-08-21T10:12:44;25.90;91.90
12604;DHT22;6367;52.508;13.284;2022-08-21T10:15:46;26.00;91.20
12604;DHT22;6367;52.508;13.284;2022-08-21T10:18:21;26.10;90.50
12604;DHT22;6367;52.508;13.284;2022-08-21T10:24:00;25.60;88.40
12604;DHT22;6367;52.508;13.284;2022-08-21T10:37:25;26.40;83.70
12604;DHT22;6367;52.508;13.284;2022-08-21T10:42:57;26.40;80.30
12604;DHT22;6367;52.508;13.284;2022-08-21T10:48:43;26.30;79.60
12604;DHT22;6367;52.508;13.284;2022-08-21T10:51:39;26.20;80.30
12604;DHT22;6367;52.508;13.284;2022-08-21T10:56:54;26.30;81.30
12604;DHT22;6367;52.508;13.284;2022-08-21T10:59:34;26.30;80.60
12604;DHT22;6367;52.508;13.284;2022-08-21T11:02:21;26.40;81.70
12604;DHT22;6367;52.508;13.284;2022-08-21T11:05:11;26.50;80.60
12604;DHT22;6367;52.508;13.284;2022-08-21T11:08:11;26.60;80.20
12604;DHT22;6367;52.508;13.284;2022-08-21T11:10:45;26.80;79.20
12604;DHT22;6367;52.508;13.284;2022-08-21T11:18:58;27.00;78.00
12604;DHT22;6367;52.508;13.284;2022-08-21T11:21:52;27.40;78.40
12604;DHT22;6367;52.508;13.284;2022-08-21T11:27:05;27.20;73.00
12604;DHT22;6367;52.508;13.284;2022-08-21T11:29:38;27.20;71.50
12604;DHT22;6367;52.508;13.284;2022-08-21T11:46:03;27.60;67.70
12604;DHT22;6367;52.508;13.284;2022-08-21T11:49:00;27.50;68.40
12604;DHT22;6367;52.508;13.284;2022-08-21T11:51:44;27.50;69.20
12604;DHT22;6367;52.508;13.284;2022-08-21T11:54:28;27.50;69.60
12604;DHT22;6367;52.508;13.284;2022-08-21T11:57:04;27.50;70.20
12604;DHT22;6367;52.508;13.284;2022-08-21T11:59:52;27.50;70.20
12604;DHT22;6367;52.508;13.284;2022-08-21T12:02:24;27.50;70.60
12604;DHT22;6367;52.508;13.284;2022-08-21T12:04:56;27.50;71.10
12604;DHT22;6367;52.508;13.284;2022-08-21T12:07:36;27.60;71.40
12604;DHT22;6367;52.508;13.284;2022-08-21T12:10:10;27.60;71.60
12604;DHT22;6367;52.508;13.284;2022-08-21T12:12:39;27.70;70.00
12604;DHT22;6367;52.508;13.284;2022-08-21T12:17:40;28.00;70.90
12604;DHT22;6367;52.508;13.284;2022-08-21T12:25:43;28.30;67.90
12604;DHT22;6367;52.508;13.284;2022-08-21T12:28:12;28.40;66.60
12604;DHT22;6367;52.508;13.284;2022-08-21T12:30:42;28.50;67.50
12604;DHT22;6367;52.508;13.284;2022-08-21T12:33:24;28.60;67.00
12604;DHT22;6367;52.508;13.284;2022-08-21T12:35:53;28.60;66.60
12604;DHT22;6367;52.508;13.284;2022-08-21T12:41:24;28.80;66.60
12604;DHT22;6367;52.508;13.284;2022-08-21T12:43:58;28.80;67.30
12604;DHT22;6367;52.508;13.284;2022-08-21T12:46:34;28.90;66.70
12604;DHT22;6367;52.508;13.284;2022-08-21T12:49:08;28.90;66.10
12604;DHT22;6367;52.508;13.284;2022-08-21T12:51:55;29.00;65.90
12604;DHT22;6367;52.508;13.284;2022-08-21T12:54:27;28.90;66.10
12604;DHT22;6367;52.508;13.284;2022-08-21T12:57:23;28.90;67.40
12604;DHT22;6367;52.508;13.284;2022-08-21T12:59:58;28.80;68.10
12604;DHT22;6367;52.508;13.284;2022-08-21T13:02:28;28.90;67.00
12604;DHT22;6367;52.508;13.284;2022-08-21T13:04:55;28.90;67.40
12604;DHT22;6367;52.508;13.284;2022-08-21T13:07:33;28.90;66.90
12604;DHT22;6367;52.508;13.284;2022-08-21T13:10:03;28.80;67.30
12604;DHT22;6367;52.508;13.284;2022-08-21T13:12:29;28.80;67.50
12604;DHT22;6367;52.508;13.284;2022-08-21T13:15:01;28.60;68.10
12604;DHT22;6367;52.508;13.284;2022-08-21T13:17:27;28.50;69.20
12604;DHT22;6367;52.508;13.284;2022-08-21T13:20:05;28.40;69.40
12604;DHT22;6367;52.508;13.284;2022-08-21T13:22:31;28.30;69.60
12604;DHT22;6367;52.508;13.284;2022-08-21T13:24:57;28.20;70.00
12604;DHT22;6367;52.508;13.284;2022-08-21T13:27:26;28.10;69.50
12604;DHT22;6367;52.508;13.284;2022-08-21T13:30:18;28.10;70.10
12604;DHT22;6367;52.508;13.284;2022-08-21T13:32:45;28.10;70.00
12604;DHT22;6367;52.508;13.284;2022-08-21T13:38:09;28.00;70.80
12604;DHT22;6367;52.508;13.284;2022-08-21T13:40:49;28.00;70.90
12604;DHT22;6367;52.508;13.284;2022-08-21T13:43:18;27.90;70.50
12604;DHT22;6367;52.508;13.284;2022-08-21T13:45:49;28.00;69.90
12604;DHT22;6367;52.508;13.284;2022-08-21T13:48:15;28.00;70.80
12604;DHT22;6367;52.508;13.284;2022-08-21T13:50:41;28.10;70.70
12604;DHT22;6367;52.508;13.284;2022-08-21T13:54:01;28.10;70.10
12604;DHT22;6367;52.508;13.284;2022-08-21T13:57:03;28.10;69.70
12604;DHT22;6367;52.508;13.284;2022-08-21T13:59:09;28.10;69.60
12604;DHT22;6367;52.508;13.284;2022-08-21T14:01:50;28.10;69.30
12604;DHT22;6367;52.508;13.284;2022-08-21T14:04:25;28.00;69.90
12604;DHT22;6367;52.508;13.284;2022-08-21T14:06:51;27.70;69.90
12604;DHT22;6367;52.508;13.284;2022-08-21T14:09:31;27.70;69.70
12604;DHT22;6367;52.508;13.284;2022-08-21T14:11:59;27.50;70.20
12604;DHT22;6367;52.508;13.284;2022-08-21T14:14:32;27.40;70.90
12604;DHT22;6367;52.508;13.284;2022-08-21T14:17:02;27.40;70.80
12604;DHT22;6367;52.508;13.284;2022-08-21T14:19:43;27.30;71.40
12604;DHT22;6367;52.508;13.284;2022-08-21T14:22:48;27.30;71.40
12604;DHT22;6367;52.508;13.284;2022-08-21T14:27:52;27.30;71.50
12604;DHT22;6367;52.508;13.284;2022-08-21T14:30:39;27.30;71.50
12604;DHT22;6367;52.508;13.284;2022-08-21T14:33:10;27.30;71.40
12604;DHT22;6367;52.508;13.284;2022-08-21T14:35:36;27.30;70.30
12604;DHT22;6367;52.508;13.284;2022-08-21T14:38:02;27.30;70.90
12604;DHT22;6367;52.508;13.284;2022-08-21T14:40:28;27.40;70.60
12604;DHT22;6367;52.508;13.284;2022-08-21T14:42:54;27.40;70.80
12604;DHT22;6367;52.508;13.284;2022-08-21T14:45:26;27.30;71.20
12604;DHT22;6367;52.508;13.284;2022-08-21T14:47:52;27.30;71.40
12604;DHT22;6367;52.508;13.284;2022-08-21T14:50:18;27.30;71.30
12604;DHT22;6367;52.508;13.284;2022-08-21T14:52:44;27.40;71.60
12604;DHT22;6367;52.508;13.284;2022-08-21T14:55:12;27.30;71.50
12604;DHT22;6367;52.508;13.284;2022-08-21T14:57:42;27.30;71.80
12604;DHT22;6367;52.508;13.284;2022-08-21T15:00:11;27.20;71.80
12604;DHT22;6367;52.508;13.284;2022-08-21T15:02:37;27.20;72.40
12604;DHT22;6367;52.508;13.284;2022-08-21T15:05:04;27.30;72.40
12604;DHT22;6367;52.508;13.284;2022-08-21T15:07:30;27.20;71.90
12604;DHT22;6367;52.508;13.284;2022-08-21T15:09:55;27.20;71.90
12604;DHT22;6367;52.508;13.284;2022-08-21T15:12:22;27.10;72.70
12604;DHT22;6367;52.508;13.284;2022-08-21T15:14:48;27.10;72.00
12604;DHT22;6367;52.508;13.284;2022-08-21T15:17:14;27.10;71.80
12604;DHT22;6367;52.508;13.284;2022-08-21T15:19:39;27.00;72.00
12604;DHT22;6367;52.508;13.284;2022-08-21T15:22:05;27.00;72.20
12604;DHT22;6367;52.508;13.284;2022-08-21T15:24:31;27.00;72.30
12604;DHT22;6367;52.508;13.284;2022-08-21T15:26:59;26.90;72.10
12604;DHT22;6367;52.508;13.284;2022-08-21T15:29:25;26.90;72.30
12604;DHT22;6367;52.508;13.284;2022-08-21T15:31:56;26.90;72.10
12604;DHT22;6367;52.508;13.284;2022-08-21T15:34:23;26.90;72.10
12604;DHT22;6367;52.508;13.284;2022-08-21T15:36:49;27.40;72.60
12604;DHT22;6367;52.508;13.284;2022-08-21T15:39:15;26.90;72.40
12604;DHT22;6367;52.508;13.284;2022-08-21T15:41:41;26.90;72.70
12604;DHT22;6367;52.508;13.284;2022-08-21T15:44:09;26.80;73.20
12604;DHT22;6367;52.508;13.284;2022-08-21T15:46:36;26.80;74.50
12604;DHT22;6367;52.508;13.284;2022-08-21T15:49:02;26.80;74.20
12604;DHT22;6367;52.508;13.284;2022-08-21T15:51:28;26.70;74.40
12604;DHT22;6367;52.508;13.284;2022-08-21T15:53:53;26.70;74.40
12604;DHT22;6367;52.508;13.284;2022-08-21T15:56:48;27.10;75.00
12604;DHT22;6367;52.508;13.284;2022-08-21T15:59:18;26.70;74.90
12604;DHT22;6367;52.508;13.284;2022-08-21T16:01:45;26.60;74.80
12604;DHT22;6367;52.508;13.284;2022-08-21T16:04:23;26.60;75.00
12604;DHT22;6367;52.508;13.284;2022-08-21T16:06:49;26.70;75.20
12604;DHT22;6367;52.508;13.284;2022-08-21T16:09:15;26.60;75.70
12604;DHT22;6367;52.508;13.284;2022-08-21T16:11:41;26.60;74.90
12604;DHT22;6367;52.508;13.284;2022-08-21T16:14:07;26.60;75.20
12604;DHT22;6367;52.508;13.284;2022-08-21T16:16:34;26.60;75.20
12604;DHT22;6367;52.508;13.284;2022-08-21T16:19:02;26.50;75.70
12604;DHT22;6367;52.508;13.284;2022-08-21T16:21:28;26.40;76.00
12604;DHT22;6367;52.508;13.284;2022-08-21T16:23:54;26.40;76.50
12604;DHT22;6367;52.508;13.284;2022-08-21T16:26:19;26.30;77.20
12604;DHT22;6367;52.508;13.284;2022-08-21T16:28:46;26.30;77.10
12604;DHT22;6367;52.508;13.284;2022-08-21T16:31:13;26.40;75.70
12604;DHT22;6367;52.508;13.284;2022-08-21T16:33:45;26.40;76.10
12604;DHT22;6367;52.508;13.284;2022-08-21T16:36:14;26.50;76.20
12604;DHT22;6367;52.508;13.284;2022-08-21T16:38:40;26.40;76.20
12604;DHT22;6367;52.508;13.284;2022-08-21T16:41:10;26.40;76.20
12604;DHT22;6367;52.508;13.284;2022-08-21T16:43:38;26.40;76.30
12604;DHT22;6367;52.508;13.284;2022-08-21T16:46:06;26.40;76.10
12604;DHT22;6367;52.508;13.284;2022-08-21T16:48:33;26.40;76.00
12604;DHT22;6367;52.508;13.284;2022-08-21T16:50:58;26.30;75.90
12604;DHT22;6367;52.508;13.284;2022-08-21T16:53:24;26.30;75.90
12604;DHT22;6367;52.508;13.284;2022-08-21T16:55:51;26.70;76.70
12604;DHT22;6367;52.508;13.284;2022-08-21T17:00:49;26.30;76.60
12604;DHT22;6367;52.508;13.284;2022-08-21T17:03:17;26.30;76.60
12604;DHT22;6367;52.508;13.284;2022-08-21T17:05:45;26.20;76.20
12604;DHT22;6367;52.508;13.284;2022-08-21T17:08:11;26.30;76.40